createdAt,value
2019-01-23T00:01:34.744Z,22.17
2019-01-23T00:06:58.296Z,22.37
2019-01-23T00:09:26.402Z,24.40
2019-01-23T00:11:54.823Z,24.53
2019-01-23T00:14:22.968Z,24.80
2019-01-23T00:16:51.447Z,22.50
2019-01-23T00:19:19.879Z,21.13
2019-01-23T00:24:43.642Z,25.73
2019-01-23T00:27:51.738Z,24.83
2019-01-23T00:30:19.496Z,23.20
2019-01-23T00:32:47.552Z,22.80
2019-01-23T00:35:15.314Z,22.57
2019-01-23T00:37:43.398Z,20.70
2019-01-23T00:40:51.540Z,21.50
2019-01-23T00:44:00.099Z,20.37
2019-01-23T00:46:27.899Z,21.03
2019-01-23T00:48:56.048Z,22.70
2019-01-23T00:52:04.509Z,22.17
2019-01-23T00:57:08.800Z,23.37
2019-01-23T00:59:36.854Z,23.50
2019-01-23T01:02:44.960Z,24.07
2019-01-23T01:05:53.449Z,23.03
2019-01-23T01:08:21.910Z,20.93
2019-01-23T01:10:49.690Z,22.97
2019-01-23T01:13:18.091Z,23.90
2019-01-23T01:16:26.599Z,25.87
2019-01-23T01:19:35.089Z,23.77
2019-01-23T01:22:43.163Z,22.63
2019-01-23T01:25:52.194Z,24.13
2019-01-23T01:28:20.643Z,24.63
2019-01-23T01:30:47.688Z,23.03
2019-01-23T01:33:16.194Z,25.17
2019-01-23T01:35:44.382Z,25.17
2019-01-23T01:38:12.564Z,23.70
2019-01-23T01:40:41.047Z,25.07
2019-01-23T01:43:09.169Z,23.50
2019-01-23T01:45:37.719Z,23.50
2019-01-23T01:48:06.057Z,23.33
2019-01-23T01:50:34.181Z,21.27
2019-01-23T01:53:02.323Z,21.60
2019-01-23T01:59:18.784Z,23.60
2019-01-23T02:02:26.882Z,23.20
2019-01-23T02:04:55.528Z,21.93
2019-01-23T02:08:04.023Z,21.47
2019-01-23T02:10:32.108Z,20.70
2019-01-23T02:13:40.521Z,20.93
2019-01-23T02:16:48.703Z,21.57
2019-01-23T02:19:16.761Z,22.07
2019-01-23T02:22:24.892Z,23.20
2019-01-23T02:24:53.298Z,21.90
2019-01-23T02:27:21.652Z,22.40
2019-01-23T02:29:49.154Z,21.63
2019-01-23T02:32:17.511Z,22.07
2019-01-23T02:35:25.598Z,22.27
2019-01-23T02:37:54.583Z,22.17
2019-01-23T02:41:03.159Z,22.33
2019-01-23T02:44:11.266Z,22.80
2019-01-23T02:46:39.653Z,22.53
2019-01-23T02:49:48.142Z,22.73
2019-01-23T02:52:56.258Z,20.23
2019-01-23T02:59:17.503Z,22.10
2019-01-23T03:01:43.854Z,22.70
2019-01-23T03:04:11.555Z,22.63
2019-01-23T03:06:39.292Z,21.70
2019-01-23T03:09:48.471Z,23.50
2019-01-23T03:12:17.011Z,23.73
2019-01-23T03:14:45.487Z,23.97
2019-01-23T03:17:53.620Z,22.77
2019-01-23T03:20:21.799Z,25.37
2019-01-23T03:22:49.941Z,25.50
2019-01-23T03:25:25.273Z,24.97
2019-01-23T03:27:53.738Z,23.77
2019-01-23T03:31:02.652Z,23.03
2019-01-23T03:37:19.743Z,22.77
2019-01-23T03:39:48.276Z,21.67
2019-01-23T03:42:16.690Z,23.33
2019-01-23T03:44:45.235Z,22.73
2019-01-23T03:47:13.682Z,25.50
2019-01-23T03:49:42.135Z,25.17
2019-01-23T03:52:10.043Z,26.17
2019-01-23T03:55:18.469Z,24.90
2019-01-23T03:58:26.989Z,24.37
2019-01-23T04:01:35.452Z,24.80
2019-01-23T04:07:12.704Z,26.30
2019-01-23T04:09:41.147Z,26.00
2019-01-23T04:15:44.928Z,24.30
2019-01-23T04:18:13.038Z,24.97
2019-01-23T04:23:36.204Z,26.30
2019-01-23T04:26:44.349Z,25.23
2019-01-23T04:32:20.471Z,23.37
2019-01-23T04:34:48.736Z,22.93
2019-01-23T04:37:16.908Z,22.20
2019-01-23T04:40:25.039Z,23.93
2019-01-23T04:43:33.218Z,34.60
2019-01-23T04:46:00.658Z,37.17
2019-01-23T04:48:29.142Z,28.20
2019-01-23T04:51:37.353Z,26.97
2019-01-23T04:57:24.802Z,25.07
2019-01-23T04:59:52.843Z,24.93
2019-01-23T05:02:40.456Z,24.57
2019-01-23T05:05:48.941Z,30.53
2019-01-23T05:08:17.050Z,27.23
2019-01-23T05:10:44.915Z,23.77
2019-01-23T05:13:13.090Z,24.97
2019-01-23T05:18:35.795Z,26.50
2019-01-23T05:21:44.285Z,24.40
2019-01-23T05:27:21.245Z,24.20
2019-01-23T05:30:29.803Z,24.97
2019-01-23T05:33:38.301Z,24.83
2019-01-23T05:41:41.364Z,27.03
2019-01-23T05:44:09.129Z,26.03
2019-01-23T05:46:36.918Z,25.33
2019-01-23T05:49:04.671Z,26.20
2019-01-23T05:51:33.144Z,27.67
2019-01-23T05:54:41.640Z,27.87
2019-01-23T05:57:49.750Z,26.20
2019-01-23T06:00:36.879Z,27.03
2019-01-23T06:03:24.419Z,28.17
2019-01-23T06:05:52.898Z,27.40
2019-01-23T06:09:01.390Z,31.03
2019-01-23T06:15:03.973Z,28.00
2019-01-23T06:18:12.396Z,34.50
2019-01-23T06:20:40.960Z,31.50
2019-01-23T06:26:44.774Z,28.97
2019-01-23T06:32:08.119Z,30.93
2019-01-23T06:35:16.296Z,27.80
2019-01-23T06:38:24.412Z,27.90
2019-01-23T06:40:52.472Z,29.07
2019-01-23T06:43:21.698Z,29.00
2019-01-23T06:45:51.008Z,29.00
2019-01-23T06:48:59.465Z,28.13
2019-01-23T06:51:46.609Z,28.73
2019-01-23T06:54:55.063Z,26.50
2019-01-23T07:00:32.217Z,27.87
2019-01-23T07:03:00.454Z,29.03
2019-01-23T07:05:28.955Z,28.80
2019-01-23T07:07:56.713Z,29.07
2019-01-23T07:11:05.482Z,28.80
2019-01-23T07:13:33.982Z,29.90
2019-01-23T07:16:02.389Z,28.93
2019-01-23T07:19:10.889Z,29.70
2019-01-23T07:22:19.342Z,27.43
2019-01-23T07:24:47.558Z,26.67
2019-01-23T07:33:30.298Z,26.47
2019-01-23T07:35:57.974Z,26.10
2019-01-23T07:41:34.315Z,24.63
2019-01-23T07:44:42.778Z,30.73
2019-01-23T07:47:30.214Z,28.73
2019-01-23T07:49:58.011Z,35.73
2019-01-23T07:52:26.205Z,38.60
2019-01-23T07:54:54.770Z,37.13
2019-01-23T07:58:02.970Z,35.60
2019-01-23T08:00:31.762Z,44.67
2019-01-23T08:03:01.580Z,38.03
2019-01-23T08:05:29.346Z,30.80
2019-01-23T08:08:37.858Z,30.10
2019-01-23T08:11:06.248Z,32.07
2019-01-23T08:13:34.710Z,30.23
2019-01-23T08:16:43.270Z,27.93
2019-01-23T08:19:11.399Z,28.13
2019-01-23T08:21:39.571Z,30.97
2019-01-23T08:24:48.054Z,29.07
2019-01-23T08:36:42.476Z,29.07
2019-01-23T08:39:50.939Z,27.27
2019-01-23T08:42:59.040Z,30.43
2019-01-23T08:52:11.561Z,29.40
2019-01-23T08:55:20.054Z,26.90
2019-01-23T08:57:48.123Z,27.20
2019-01-23T09:00:56.552Z,27.03
2019-01-23T09:03:24.371Z,27.43
2019-01-23T09:05:52.529Z,29.97
2019-01-23T09:11:14.827Z,31.30
2019-01-23T09:13:43.381Z,29.63
2019-01-23T09:16:11.754Z,28.30
2019-01-23T09:19:19.808Z,28.83
2019-01-23T09:21:47.609Z,28.97
2019-01-23T09:24:16.277Z,28.53
2019-01-23T09:26:44.431Z,27.83
2019-01-23T09:29:12.576Z,27.90
2019-01-23T09:35:30.218Z,28.57
2019-01-23T09:38:36.741Z,27.83
2019-01-23T09:41:43.334Z,28.13
2019-01-23T09:44:49.584Z,28.93
2019-01-23T09:48:00.539Z,26.80
2019-01-23T09:51:11.578Z,26.53
2019-01-23T09:54:22.851Z,33.60
2019-01-23T10:00:26.559Z,29.30
2019-01-23T10:03:35.030Z,29.47
2019-01-23T10:06:02.616Z,31.80
2019-01-23T10:08:31.100Z,34.10
2019-01-23T10:11:18.110Z,28.17
2019-01-23T10:13:45.258Z,28.40
2019-01-23T10:19:11.123Z,30.67
2019-01-23T10:22:19.237Z,30.23
2019-01-23T10:25:27.315Z,29.67
2019-01-23T10:28:35.483Z,29.33
2019-01-23T10:33:58.146Z,27.67
2019-01-23T10:36:25.570Z,27.47
2019-01-23T10:38:54.192Z,27.33
2019-01-23T10:41:22.573Z,28.03
2019-01-23T10:43:50.858Z,30.00
2019-01-23T10:46:18.171Z,28.73
2019-01-23T10:48:46.574Z,26.90
2019-01-23T10:51:15.012Z,29.13
2019-01-23T10:53:43.165Z,29.53
2019-01-23T10:56:11.568Z,27.37
2019-01-23T10:58:39.306Z,28.43
2019-01-23T11:01:13.235Z,28.47
2019-01-23T11:04:17.735Z,26.33
2019-01-23T11:06:46.140Z,26.43
2019-01-23T11:12:09.271Z,26.87
2019-01-23T11:20:41.319Z,27.07
2019-01-23T11:23:09.954Z,24.83
2019-01-23T11:25:38.405Z,25.33
2019-01-23T11:28:06.967Z,26.63
2019-01-23T11:30:35.339Z,27.53
2019-01-23T11:33:03.374Z,25.80
2019-01-23T11:36:11.458Z,26.70
2019-01-23T11:38:39.973Z,23.37
2019-01-23T11:41:08.660Z,26.03
2019-01-23T11:44:17.234Z,23.67
2019-01-23T11:46:45.640Z,24.90
2019-01-23T11:49:14.135Z,25.63
2019-01-23T11:51:42.224Z,23.87
2019-01-23T11:57:05.650Z,23.27
2019-01-23T11:59:33.763Z,23.53
2019-01-23T12:02:42.256Z,25.97
2019-01-23T12:05:51.558Z,26.20
2019-01-23T12:11:33.687Z,27.03
2019-01-23T12:14:42.201Z,27.10
2019-01-23T12:17:10.284Z,27.40
2019-01-23T12:20:18.752Z,25.90
2019-01-23T12:23:27.242Z,26.60
2019-01-23T12:25:55.676Z,26.53
2019-01-23T12:28:24.355Z,27.53
2019-01-23T12:30:52.510Z,26.77
2019-01-23T12:33:21.033Z,30.77
2019-01-23T12:38:44.259Z,25.17
2019-01-23T12:41:12.414Z,23.97
2019-01-23T12:44:20.654Z,24.50
2019-01-23T12:47:29.764Z,24.63
2019-01-23T12:49:58.321Z,26.03
2019-01-23T12:52:26.011Z,31.50
2019-01-23T12:54:54.414Z,28.10
2019-01-23T12:57:22.595Z,26.53
2019-01-23T12:59:50.970Z,25.43
2019-01-23T13:02:19.154Z,27.30
2019-01-23T13:04:47.300Z,25.00
2019-01-23T13:10:34.163Z,26.67
2019-01-23T13:15:57.852Z,25.53
2019-01-23T13:19:05.662Z,24.00
2019-01-23T13:21:32.975Z,23.53
2019-01-23T13:24:01.364Z,24.67
2019-01-23T13:27:09.460Z,23.87
2019-01-23T13:30:17.690Z,25.77
2019-01-23T13:32:45.479Z,25.00
2019-01-23T13:35:15.059Z,23.70
2019-01-23T13:37:43.290Z,24.63
2019-01-23T13:40:31.125Z,24.47
2019-01-23T13:42:59.404Z,25.13
2019-01-23T13:45:27.586Z,23.83
2019-01-23T13:48:35.800Z,24.90
2019-01-23T13:51:03.674Z,25.17
2019-01-23T13:53:31.842Z,24.87
2019-01-23T13:55:59.621Z,25.03
2019-01-23T13:59:07.844Z,25.30
2019-01-23T14:01:35.736Z,23.83
2019-01-23T14:04:44.245Z,24.70
2019-01-23T14:09:46.062Z,24.90
2019-01-23T14:12:14.337Z,25.30
2019-01-23T14:17:37.826Z,26.13
2019-01-23T14:20:46.898Z,24.23
2019-01-23T14:23:14.422Z,23.57
2019-01-23T14:28:37.161Z,29.90
2019-01-23T14:31:06.898Z,38.40
2019-01-23T14:33:35.137Z,26.93
2019-01-23T14:39:39.486Z,25.23
2019-01-23T14:42:07.755Z,26.17
2019-01-23T14:48:24.544Z,21.67
2019-01-23T14:56:42.735Z,23.40
2019-01-23T14:59:11.064Z,24.23
2019-01-23T15:01:39.663Z,23.43
2019-01-23T15:04:08.717Z,27.87
2019-01-23T15:06:36.135Z,37.00
2019-01-23T15:09:46.324Z,26.87
2019-01-23T15:12:14.461Z,25.10
2019-01-23T15:15:22.975Z,24.03
2019-01-23T15:17:51.718Z,26.10
2019-01-23T15:21:01.171Z,28.60
2019-01-23T15:24:10.186Z,24.07
2019-01-23T15:27:18.277Z,23.63
2019-01-23T15:30:26.776Z,25.83
2019-01-23T15:35:50.169Z,25.17
2019-01-23T15:38:18.450Z,25.30
2019-01-23T15:40:46.613Z,26.47
2019-01-23T15:43:15.316Z,26.60
2019-01-23T15:45:43.171Z,26.53
2019-01-23T15:48:11.245Z,24.60
2019-01-23T15:50:41.185Z,25.87
2019-01-23T15:56:45.186Z,26.33
2019-01-23T15:59:53.404Z,24.73
2019-01-23T16:02:24.407Z,26.27
2019-01-23T16:04:52.295Z,26.60
2019-01-23T16:07:20.876Z,25.23
2019-01-23T16:09:49.053Z,23.63
2019-01-23T16:12:17.638Z,28.73
2019-01-23T16:14:45.914Z,25.90
2019-01-23T16:17:14.402Z,24.67
2019-01-23T16:19:42.576Z,25.20
2019-01-23T16:22:11.113Z,24.53
2019-01-23T16:24:39.697Z,25.30
2019-01-23T16:27:07.956Z,27.47
2019-01-23T16:32:09.847Z,25.33
2019-01-23T16:35:18.055Z,25.43
2019-01-23T16:37:46.508Z,27.33
2019-01-23T16:40:55.113Z,29.87
2019-01-23T16:44:03.595Z,30.80
2019-01-23T16:46:31.343Z,27.43
2019-01-23T16:49:39.480Z,28.07
2019-01-23T16:52:07.962Z,28.33
2019-01-23T16:54:36.035Z,28.53
2019-01-23T16:57:03.486Z,28.60
2019-01-23T17:00:11.948Z,29.50
2019-01-23T17:03:20.496Z,28.03
2019-01-23T17:08:57.271Z,28.40
2019-01-23T17:11:25.764Z,27.17
2019-01-23T17:13:54.541Z,29.97
2019-01-23T17:17:03.070Z,31.13
2019-01-23T17:19:31.679Z,28.87
2019-01-23T17:21:59.311Z,36.37
2019-01-23T17:25:07.508Z,35.33
2019-01-23T17:28:15.642Z,37.13
2019-01-23T17:31:24.077Z,37.17
2019-01-23T17:37:27.732Z,33.53
2019-01-23T17:40:35.951Z,38.30
2019-01-23T17:43:44.556Z,35.17
2019-01-23T17:49:20.839Z,29.73
2019-01-23T17:51:49.426Z,32.63
2019-01-23T17:54:17.897Z,30.67
2019-01-23T17:56:48.165Z,33.60
2019-01-23T17:59:16.930Z,31.70
2019-01-23T18:02:25.435Z,30.90
2019-01-23T18:05:33.700Z,30.67
2019-01-23T18:08:01.505Z,30.47
2019-01-23T18:11:09.734Z,32.00
2019-01-23T18:14:17.887Z,35.53
2019-01-23T18:17:26.596Z,31.47
2019-01-23T18:19:54.841Z,29.63
2019-01-23T18:22:42.328Z,30.13
2019-01-23T18:31:40.350Z,29.33
2019-01-23T18:34:47.100Z,28.70
2019-01-23T18:41:10.512Z,27.73
2019-01-23T18:44:04.338Z,29.73
2019-01-23T18:47:11.796Z,30.97
2019-01-23T18:50:18.555Z,29.77
2019-01-23T18:53:06.701Z,31.13
2019-01-23T18:55:47.199Z,30.17
2019-01-23T19:01:07.052Z,31.97
2019-01-23T19:06:56.928Z,35.83
2019-01-23T19:09:44.802Z,31.70
2019-01-23T19:15:33.395Z,28.00
2019-01-23T19:20:37.292Z,34.97
2019-01-23T19:23:06.163Z,36.20
2019-01-23T19:28:43.055Z,33.80
2019-01-23T19:31:52.066Z,35.77
2019-01-23T19:35:00.346Z,33.93
2019-01-23T19:37:48.793Z,33.00
2019-01-23T19:40:57.594Z,33.70
2019-01-23T19:43:45.201Z,33.90
2019-01-23T19:46:14.221Z,32.93
2019-01-23T19:48:43.966Z,34.17
2019-01-23T19:54:21.688Z,32.93
2019-01-23T20:02:53.584Z,27.67
2019-01-23T20:08:27.710Z,32.23
2019-01-23T20:11:36.638Z,34.20
2019-01-23T20:14:25.170Z,37.73
2019-01-23T20:16:53.677Z,32.70
2019-01-23T20:19:21.953Z,31.93
2019-01-23T20:22:09.607Z,33.80
2019-01-23T20:27:31.832Z,33.53
2019-01-23T20:32:53.460Z,32.07
2019-01-23T20:38:16.738Z,32.23
2019-01-23T20:41:24.917Z,38.73
2019-01-23T20:44:33.631Z,39.27
2019-01-23T20:50:34.953Z,31.37
2019-01-23T20:53:22.136Z,33.73
2019-01-23T21:01:19.942Z,31.53
2019-01-23T21:03:48.479Z,27.53
2019-01-23T21:06:30.116Z,25.73
2019-01-23T21:08:58.823Z,29.83
2019-01-23T21:12:07.714Z,29.30
2019-01-23T21:14:58.029Z,25.77
2019-01-23T21:17:45.928Z,30.33
2019-01-23T21:20:34.423Z,23.90
2019-01-23T21:23:42.705Z,27.70
2019-01-23T21:26:10.885Z,27.67
2019-01-23T21:34:30.971Z,27.23
2019-01-23T21:36:58.854Z,28.10
2019-01-23T21:40:07.547Z,29.80
2019-01-23T21:43:16.662Z,28.40
2019-01-23T21:46:25.591Z,27.33
2019-01-23T21:51:49.733Z,34.00
2019-01-23T21:56:52.461Z,34.27
2019-01-23T22:02:38.690Z,32.60
2019-01-23T22:05:48.259Z,30.57
2019-01-23T22:08:17.094Z,29.43
2019-01-23T22:11:25.231Z,33.23
2019-01-23T22:13:53.272Z,30.43
2019-01-23T22:17:01.766Z,28.67
2019-01-23T22:19:30.532Z,29.93
2019-01-23T22:39:08.992Z,31.77
2019-01-23T22:41:38.570Z,28.40
2019-01-23T22:44:47.145Z,33.00
2019-01-23T22:47:15.321Z,31.97
2019-01-23T22:49:43.197Z,31.37
2019-01-23T22:52:51.692Z,31.40
2019-01-23T22:55:59.868Z,30.93
2019-01-23T22:58:27.525Z,29.53
2019-01-23T23:07:48.266Z,29.57
2019-01-23T23:10:16.125Z,28.33
2019-01-23T23:12:43.503Z,29.13
2019-01-23T23:15:51.642Z,30.43
2019-01-23T23:21:27.744Z,29.00
2019-01-23T23:24:36.229Z,28.37
2019-01-23T23:27:44.759Z,28.07
2019-01-23T23:30:53.265Z,26.73
2019-01-23T23:34:01.410Z,25.90
2019-01-23T23:37:09.853Z,27.53
2019-01-23T23:40:17.684Z,29.17
2019-01-23T23:42:46.188Z,26.57
2019-01-23T23:45:54.713Z,28.40
2019-01-23T23:51:17.501Z,31.47
2019-01-23T23:53:45.702Z,30.43
2019-01-23T23:56:14.122Z,28.43
2019-01-23T23:59:22.643Z,28.57
